Thunder radar more information blitzortung!


Radar de pluja more information rain snow radar


Visita la nostra xarxa de llocs de meteo:

Template documentation
and downloads

And another site



No particular awareness of the weather is required.    There are no Weather-warnings

Pagina Historial Weather Underground text

Diari Resum May 13, 2016 Unitats:  Mètric    Imperial   Tant
« Previous Dia
SegĂźent Dia »
Diari Setmana Mensual Anual Personalitzada
  Maxima: Minima: Media:
Temperatura: -17.8 °C -12.3 °C -8.2 °C
Punt de rosada: -17.8 °C -14.5 °C -12.9 °C
Humitat: Humidity % 32 % 59 %
Wind Speed: 0 km/h 0 km/h 10.8 km/h
RĂ fegues de vent: 0 km/h - -
Vent:- - SE
Pression baro: 0 hPa 34063.2 hPa -
Precipitacions: 0 mm    
Historical Graphs
 
 
Dades de taula per May 13, 2016
Temps Temperatura Punt de rosada Pression baro Vent Wind Speed RĂ fegues de vent Humitat Rainfall Rate (Hourly)
-17.8 °C -17.8 °C 0 hPa Calm     Humidity % 0 mm
00:00 -12 °C -14.3 °C 34097 hPa Calm   5.1 km/h 75 % 0 mm
00:01 -10.6 °C -13.5 °C 34097 hPa SW 6.3 km/h 6.3 km/h 70 % 0 mm
00:06 -10.6 °C -13.6 °C 34097 hPa WSW 3.7 km/h 3.7 km/h 70 % 0 mm
00:10 -12 °C -14.3 °C 34097 hPa Calm   2.6 km/h 76 % 0 mm
00:11 -10.6 °C -13.6 °C 34063.2 hPa West 6 km/h 6 km/h 70 % 0 mm
00:20 -12.2 °C -14.4 °C 34097 hPa NNE 2.6 km/h 5.1 km/h 76 % 0 mm
00:30 -12.2 °C -14.3 °C 34097 hPa WSW 2.6 km/h 5.1 km/h 77 % 0 mm
00:40 -12.2 °C -14.5 °C 34097 hPa WSW 2.6 km/h 5.1 km/h 76 % 0 mm
00:50 -12.2 °C -14.2 °C 34097 hPa Calm   5.1 km/h 78 % 0 mm
01:00 -12.2 °C -14.2 °C 34097 hPa WNW 2.6 km/h 5.1 km/h 78 % 0 mm
01:10 -12.2 °C -14.2 °C 34097 hPa Calm   2.6 km/h 78 % 0 mm
01:20 -12.2 °C -14.3 °C 34097 hPa NNE 5.1 km/h 7.7 km/h 78 % 0 mm
01:30 -12.2 °C -14.2 °C 34097 hPa Calm   2.6 km/h 78 % 0 mm
01:40 -12.3 °C -14.5 °C 34097 hPa West 2.6 km/h 5.1 km/h 77 % 0 mm
01:50 -12.2 °C -14.3 °C 34097 hPa West 2.6 km/h 5.1 km/h 78 % 0 mm
02:00 -12.1 °C -14.1 °C 34097 hPa Calm   5.1 km/h 78 % 0 mm
02:10 -11.8 °C -13.9 °C 34097 hPa NW 2.6 km/h 5.1 km/h 78 % 0 mm
02:20 -11.6 °C -13.6 °C 34097 hPa NE 2.6 km/h 7.7 km/h 78 % 0 mm
02:30 -11.3 °C -13.4 °C 34130.9 hPa NE 2.6 km/h 5.1 km/h 77 % 0 mm
02:40 -11.1 °C -13.4 °C 34130.9 hPa NNE 2.6 km/h 7.7 km/h 76 % 0 mm
02:50 -10.9 °C -13.2 °C 34130.9 hPa NNE 2.6 km/h 7.7 km/h 76 % 0 mm
03:00 -10.7 °C -13.1 °C 34130.9 hPa NE 2.6 km/h 5.1 km/h 75 % 0 mm
03:10 -10.6 °C -13.1 °C 34130.9 hPa NE 7.7 km/h 7.7 km/h 74 % 0 mm
03:20 -10.6 °C -13.2 °C 34130.9 hPa NE 5.1 km/h 12.9 km/h 73 % 0 mm
03:30 -10.4 °C -13 °C 34130.9 hPa NNE 7.7 km/h 10.3 km/h 73 % 0 mm
03:40 -10.1 °C -12.9 °C 34097 hPa NE 5.1 km/h 10.3 km/h 72 % 0 mm
03:50 -10.2 °C -13 °C 34097 hPa ENE 12.9 km/h 12.9 km/h 71 % 0 mm
04:00 -10 °C -12.9 °C 34097 hPa ENE 5.1 km/h 12.9 km/h 71 % 0 mm
04:10 -9.8 °C -12.8 °C 34130.9 hPa NE 5.1 km/h 7.7 km/h 70 % 0 mm
04:20 -9.7 °C -12.8 °C 34130.9 hPa NE 7.7 km/h 10.3 km/h 69 % 0 mm
04:30 -9.7 °C -12.8 °C 34130.9 hPa NE 7.7 km/h 15.6 km/h 69 % 0 mm
04:40 -9.4 °C -12.6 °C 34130.9 hPa NNE 7.7 km/h 12.9 km/h 69 % 0 mm
04:50 -9.3 °C -12.6 °C 34130.9 hPa NNE 2.6 km/h 10.3 km/h 68 % 0 mm
05:10 -9.1 °C -12.6 °C 34097 hPa NE 7.7 km/h 12.9 km/h 66 % 0 mm
05:20 -8.8 °C -12.5 °C 34097 hPa ENE 7.7 km/h 10.3 km/h 65 % 0 mm
05:30 -8.7 °C -12.3 °C 34130.9 hPa ENE 5.1 km/h 10.3 km/h 65 % 0 mm
05:40 -8.4 °C -12.1 °C 34097 hPa ENE 5.1 km/h 7.7 km/h 65 % 0 mm
05:50 -8.1 °C -12.2 °C 34097 hPa ENE 7.7 km/h 7.7 km/h 62 % 0 mm
06:00 -7.9 °C -12.1 °C 34130.9 hPa ENE 2.6 km/h 10.3 km/h 62 % 0 mm
11:09 -7.7 °C -11.9 °C 34130.9 hPa NNE 10.3 km/h 10.3 km/h 61 % 0 mm
11:14 -7.7 °C -12.1 °C 34130.9 hPa East 15 km/h 15 km/h 60 % 0 mm
11:29 -7 °C -11.6 °C 34130.9 hPa SW 9.3 km/h 9.3 km/h 59 % 0 mm
11:34 -7 °C -12 °C 34130.9 hPa SW 9 km/h 9 km/h 56 % 0 mm
11:39 -6.9 °C -12.1 °C 34097 hPa NE 26.9 km/h 26.9 km/h 55 % 0 mm
11:44 -6.7 °C -12 °C 34097 hPa NE 9 km/h 9 km/h 54 % 0 mm
11:49 -6.4 °C -11.9 °C 34097 hPa NNE 8 km/h 10.3 km/h 53 % 0 mm
11:54 -6.5 °C -11.8 °C 34130.9 hPa WSW 9.3 km/h 9.3 km/h 54 % 0 mm
11:59 -6.4 °C -12.1 °C 34130.9 hPa SSE 17.9 km/h 17.9 km/h 52 % 0 mm
12:04 -6.2 °C -11.8 °C 34130.9 hPa WNW 11.9 km/h 11.9 km/h 52 % 0 mm
12:09 -6.3 °C -12.1 °C 34130.9 hPa WSW 11.9 km/h 11.9 km/h 51 % 0 mm
12:14 -6.3 °C -12.1 °C 34130.9 hPa WNW 11.9 km/h 11.9 km/h 51 % 0 mm
12:19 -6.2 °C -12.2 °C 34130.9 hPa West 11.9 km/h 11.9 km/h 50 % 0 mm
12:24 -6.1 °C -12.3 °C 34130.9 hPa WNW 15 km/h 15 km/h 49 % 0 mm
12:29 -5.9 °C -12.1 °C 34130.9 hPa WSW 9 km/h 9 km/h 49 % 0 mm
12:34 -5.9 °C -12.3 °C 34130.9 hPa WNW 9 km/h 9 km/h 48 % 0 mm
12:39 -5.9 °C -12.3 °C 34097 hPa SSW 6.3 km/h 6.3 km/h 48 % 0 mm
12:49 -5.7 °C -12.3 °C 34097 hPa West 16.6 km/h 16.6 km/h 47 % 0 mm
12:54 -5.6 °C -12.2 °C 34130.9 hPa WSW 20.9 km/h 20.9 km/h 47 % 0 mm
12:59 -5.8 °C -12.6 °C 34130.9 hPa WSW 6 km/h 6 km/h 46 % 0 mm
13:09 -5.5 °C -12.4 °C 34130.9 hPa SW 15.6 km/h 15.6 km/h 45 % 0 mm
13:14 -5.5 °C -12.6 °C 34130.9 hPa SW 15 km/h 15 km/h 44 % 0 mm
13:19 -5.5 °C -12.6 °C 34130.9 hPa WSW 9 km/h 9 km/h 44 % 0 mm
13:24 -5.4 °C -12.8 °C 34097 hPa WSW 20.9 km/h 20.9 km/h 43 % 0 mm
13:29 -5.4 °C -12.9 °C 34097 hPa SW 20.9 km/h 20.9 km/h 42 % 0 mm
13:34 -5.2 °C -12.5 °C 34097 hPa SW 15 km/h 15 km/h 43 % 0 mm
13:39 -5.2 °C -12.7 °C 34097 hPa WSW 23.8 km/h 23.8 km/h 42 % 0 mm
13:44 -5.2 °C -12.9 °C 34097 hPa WSW 25.4 km/h 25.4 km/h 41 % 0 mm
13:49 -5.2 °C -13.2 °C 34097 hPa WSW 15 km/h 15 km/h 40 % 0 mm
13:54 -5 °C -13.4 °C 34097 hPa WSW 22.5 km/h 22.5 km/h 38 % 0 mm
13:59 -5.1 °C -13 °C 34097 hPa SW 17.9 km/h 17.9 km/h 40 % 0 mm
14:04 -4.9 °C -13.3 °C 34097 hPa SW 26.9 km/h 26.9 km/h 38 % 0 mm
14:14 -5 °C -13.6 °C 34097 hPa WSW 15 km/h 15 km/h 37 % 0 mm
14:19 -4.8 °C -13.2 °C 34097 hPa WSW 15 km/h 15 km/h 38 % 0 mm
14:24 -4.9 °C -13.6 °C 34097 hPa WSW 26.9 km/h 26.9 km/h 37 % 0 mm
14:29 -4.8 °C -13.6 °C 34097 hPa NW 26.9 km/h 26.9 km/h 36 % 0 mm
14:34 -4.9 °C -13.7 °C 34097 hPa NW 15 km/h 15 km/h 36 % 0 mm
14:39 -4.7 °C -13.4 °C 34097 hPa WSW 16.6 km/h 16.6 km/h 37 % 0 mm
14:44 -4.6 °C -13.2 °C 34097 hPa WSW 16.6 km/h 16.6 km/h 37 % 0 mm
14:49 -4.6 °C -13.4 °C 34097 hPa SW 15 km/h 15 km/h 36 % 0 mm
14:54 -4.5 °C -13.2 °C 34097 hPa SSW 15 km/h 15 km/h 37 % 0 mm
14:59 -4.6 °C -13.4 °C 34097 hPa WSW 17.9 km/h 17.9 km/h 36 % 0 mm
15:04 -4.8 °C -13.8 °C 34097 hPa West 23.8 km/h 23.8 km/h 35 % 0 mm
15:09 -4.6 °C -13.9 °C 34097 hPa WSW 19.6 km/h 19.6 km/h 34 % 0 mm
15:14 -4.7 °C -13.8 °C 34097 hPa SSW 15.3 km/h 15.3 km/h 35 % 0 mm
15:19 -4.5 °C -13.8 °C 34097 hPa WSW 20.9 km/h 20.9 km/h 34 % 0 mm
15:24 -4.5 °C -14.1 °C 34097 hPa West 26.9 km/h 26.9 km/h 33 % 0 mm
15:29 -4.4 °C -13.6 °C 34097 hPa West 9 km/h 9 km/h 35 % 0 mm
15:34 -4.2 °C -13.4 °C 34097 hPa WSW 18.3 km/h 18.3 km/h 35 % 0 mm
15:39 -4.4 °C -13.7 °C 34097 hPa WSW 15 km/h 15 km/h 34 % 0 mm
15:44 -4.2 °C -13.6 °C 34097 hPa SSW 11.9 km/h 11.9 km/h 34 % 0 mm
15:49 -4.3 °C -13.9 °C 34097 hPa West 20.9 km/h 20.9 km/h 33 % 0 mm
15:54 -4.2 °C -13.6 °C 34097 hPa West 25.1 km/h 25.1 km/h 34 % 0 mm
15:59 -4.4 °C -14.2 °C 34097 hPa SW 27.7 km/h 27.7 km/h 32 % 0 mm
16:04 -4.5 °C -14.1 °C 34097 hPa SSW 15 km/h 15 km/h 33 % 0 mm
16:09 -4.7 °C -14.5 °C 34097 hPa West 17.9 km/h 17.9 km/h 32 % 0 mm
16:14 -4.6 °C -14.4 °C 34097 hPa WSW 20.9 km/h 20.9 km/h 32 % 0 mm
16:19 -4.6 °C -13.9 °C 34097 hPa WSW 7.6 km/h 7.6 km/h 34 % 0 mm
16:24 -4.7 °C -14 °C 34130.9 hPa WNW 9 km/h 9 km/h 34 % 0 mm
16:29 -4.6 °C -13.9 °C 34130.9 hPa WNW 15.3 km/h 15.3 km/h 34 % 0 mm
16:34 -4.7 °C -14 °C 34130.9 hPa WSW 15.6 km/h 15.6 km/h 34 % 0 mm
16:44 -4.9 °C -14.2 °C 34097 hPa SW 6 km/h 6 km/h 34 % 0 mm
16:49 -4.9 °C -13.9 °C 34097 hPa West 15 km/h 15 km/h 35 % 0 mm
16:54 -5 °C -14.3 °C 34097 hPa NE 17.9 km/h 17.9 km/h 34 % 0 mm
16:59 -5.1 °C -13.9 °C 34097 hPa West 9 km/h 9 km/h 36 % 0 mm
17:04 -5.1 °C -13.7 °C 34097 hPa ENE 9 km/h 9 km/h 37 % 0 mm
17:09 -5.3 °C -13.8 °C 34130.9 hPa ENE 17.9 km/h 17.9 km/h 37 % 0 mm
17:14 -6.2 °C -13.2 °C 34130.9 hPa ENE 23.8 km/h 23.8 km/h 44 % 0 mm
17:19 -6.7 °C -13 °C 34130.9 hPa ESE 20.9 km/h 20.9 km/h 48 % 0 mm
17:24 -6.9 °C -13.1 °C 34130.9 hPa ESE 26.9 km/h 26.9 km/h 49 % 0 mm
17:29 -7.2 °C -13.1 °C 34130.9 hPa NNE 22 km/h 22 km/h 50 % 0 mm
17:34 -7.3 °C -13.1 °C 34130.9 hPa East 20.9 km/h 20.9 km/h 51 % 0 mm
17:39 -7.4 °C -13 °C 34164.7 hPa ENE 23.8 km/h 23.8 km/h 52 % 0 mm
17:44 -7.6 °C -13.1 °C 34164.7 hPa NNE 20.9 km/h 20.9 km/h 52 % 0 mm
17:49 -7.7 °C -13.1 °C 34164.7 hPa NNE 35.7 km/h 35.7 km/h 53 % 0 mm
17:54 -7.8 °C -13.2 °C 34130.9 hPa ENE 41.2 km/h 41.2 km/h 53 % 0 mm
17:59 -7.9 °C -13.3 °C 34130.9 hPa ESE 23.8 km/h 23.8 km/h 53 % 0 mm
18:04 -7.9 °C -13.1 °C 34130.9 hPa NNE 26.9 km/h 26.9 km/h 54 % 0 mm
18:14 -8.1 °C -13.2 °C 34130.9 hPa ESE 35.7 km/h 35.7 km/h 55 % 0 mm
18:19 -8.1 °C -13 °C 34130.9 hPa NE 32.8 km/h 32.8 km/h 56 % 0 mm
18:24 -8.1 °C -13.1 °C 34130.9 hPa East 23.8 km/h 23.8 km/h 56 % 0 mm
18:29 -8.2 °C -13.1 °C 34130.9 hPa East 20.9 km/h 20.9 km/h 56 % 0 mm
18:34 -8.2 °C -12.8 °C 34130.9 hPa ENE 16.1 km/h 16.6 km/h 58 % 0 mm
18:39 -8.2 °C -12.7 °C 34130.9 hPa NNE 29.8 km/h 29.8 km/h 59 % 0 mm
18:44 -8.3 °C -12.7 °C 34130.9 hPa NE 26.9 km/h 26.9 km/h 60 % 0 mm
18:49 -8.3 °C -12.7 °C 34130.9 hPa ESE 20.9 km/h 20.9 km/h 60 % 0 mm
18:54 -8.3 °C -12.7 °C 34164.7 hPa ESE 20.9 km/h 20.9 km/h 60 % 0 mm
18:59 -8.4 °C -12.4 °C 34164.7 hPa ENE 11.9 km/h 11.9 km/h 62 % 0 mm
19:09 -8.6 °C -12.3 °C 34164.7 hPa East 15 km/h 15 km/h 64 % 0 mm
19:14 -8.6 °C -12.4 °C 34164.7 hPa NNE 20.9 km/h 20.9 km/h 64 % 0 mm
19:19 -8.6 °C -12.4 °C 34164.7 hPa NNE 16.1 km/h 16.1 km/h 64 % 0 mm
19:20 -9.7 °C -12.1 °C 34198.6 hPa WSW 2.6 km/h 2.6 km/h 76 % 0 mm
19:24 -8.6 °C -12.3 °C 34164.7 hPa NNE 19.6 km/h 19.6 km/h 65 % 0 mm
19:29 -8.7 °C -12.3 °C 34164.7 hPa NE 15 km/h 15 km/h 66 % 0 mm
19:30 -9.8 °C -12 °C 34164.7 hPa Calm     77 % 0 mm
19:34 -8.7 °C -12.3 °C 34164.7 hPa ENE 15 km/h 15 km/h 66 % 0 mm
19:39 -8.8 °C -12.3 °C 34198.6 hPa ENE 11.9 km/h 11.9 km/h 66 % 0 mm
19:44 -8.8 °C -12.3 °C 34198.6 hPa ENE 11.9 km/h 11.9 km/h 66 % 0 mm
19:49 -8.8 °C -12.4 °C 34198.6 hPa NNE 11.9 km/h 11.9 km/h 66 % 0 mm
19:50 -9.8 °C -12.2 °C 34198.6 hPa Calm   2.6 km/h 76 % 0 mm
19:54 -8.8 °C -12.3 °C 34198.6 hPa ENE 17.9 km/h 17.9 km/h 67 % 0 mm
20:00 -9.9 °C -12.2 °C 34198.6 hPa SW 2.6 km/h 5.1 km/h 77 % 0 mm
20:04 -8.9 °C -12.3 °C 34198.6 hPa NE 7.6 km/h 8 km/h 67 % 0 mm
20:09 -8.9 °C -12.3 °C 34198.6 hPa East 9 km/h 9 km/h 67 % 0 mm
20:14 -8.9 °C -12.3 °C 34198.6 hPa NNE 9 km/h 9 km/h 67 % 0 mm
20:19 -8.9 °C -12.3 °C 34198.6 hPa East 6 km/h 6.3 km/h 67 % 0 mm
20:20 -10.1 °C -12.4 °C 34198.6 hPa SW 5.1 km/h 5.1 km/h 76 % 0 mm
20:24 -8.9 °C -12.2 °C 34198.6 hPa ENE 9 km/h 9 km/h 68 % 0 mm
20:30 -8.9 °C -12.2 °C 34198.6 hPa ENE 5.1 km/h 10.3 km/h 68 % 0 mm
20:35 -8.9 °C -12.2 °C 34198.6 hPa NNE 11.9 km/h 11.9 km/h 68 % 0 mm
20:40 -9 °C -12.2 °C 34198.6 hPa NNE 9 km/h 9 km/h 69 % 0 mm
20:45 -9.1 °C -12.2 °C 34198.6 hPa NNE 11.9 km/h 11.9 km/h 69 % 0 mm
20:50 -9.1 °C -12.3 °C 34198.6 hPa NNE 9 km/h 9 km/h 69 % 0 mm
20:55 -9.1 °C -12.3 °C 34198.6 hPa NNE 9.3 km/h 9.3 km/h 69 % 0 mm
21:00 -9.1 °C -12.1 °C 34198.6 hPa NNE 9 km/h 9 km/h 70 % 0 mm
21:05 -9.1 °C -12.1 °C 34198.6 hPa NNE 6 km/h 6.8 km/h 70 % 0 mm
21:10 -9.2 °C -12.2 °C 34222.3 hPa ENE 11.9 km/h 11.9 km/h 70 % 0 mm
21:15 -9.2 °C -12.1 °C 34222.3 hPa ENE 11.9 km/h 11.9 km/h 71 % 0 mm
21:20 -9.2 °C -12.1 °C 34222.3 hPa NNE 9 km/h 9 km/h 71 % 0 mm
21:25 -9.2 °C -12.1 °C 34198.6 hPa NE 3.7 km/h 3.7 km/h 71 % 0 mm
21:30 -9.2 °C -12.1 °C 34198.6 hPa Calm     71 % 0 mm
21:35 -9.3 °C -12.2 °C 34198.6 hPa Calm     71 % 0 mm
21:40 -9.3 °C -12.1 °C 34198.6 hPa Calm     72 % 0 mm
21:45 -9.3 °C -12.1 °C 34198.6 hPa ENE 5.1 km/h 5.1 km/h 72 % 0 mm
21:50 -9.3 °C -12.1 °C 34198.6 hPa ENE 3.1 km/h 3.7 km/h 72 % 0 mm
22:00 -9.3 °C -12.1 °C 34198.6 hPa NNE 6.3 km/h 6.3 km/h 72 % 0 mm
22:05 -9.3 °C -12.1 °C 34198.6 hPa Calm     72 % 0 mm
22:10 -9.3 °C -12.1 °C 34198.6 hPa Calm     72 % 0 mm
22:15 -9.3 °C -12.1 °C 34198.6 hPa Calm     72 % 0 mm
22:20 -10.4 °C -12.8 °C 34222.3 hPa Calm   2.6 km/h 75 % 0 mm
22:21 -9.3 °C -11.9 °C 34198.6 hPa NE 6 km/h   73 % 0 mm
22:26 -9.3 °C -11.9 °C 34198.6 hPa ENE 6 km/h 6 km/h 73 % 0 mm
22:30 -10.5 °C -13 °C 34198.6 hPa NNE 2.6 km/h 5.1 km/h 74 % 0 mm
22:31 -9.3 °C -12 °C 34198.6 hPa ENE 6 km/h 6 km/h 73 % 0 mm
22:36 -9.3 °C -12 °C 34198.6 hPa ENE 3.1 km/h   73 % 0 mm
22:40 -10.7 °C -13.1 °C 34222.3 hPa Calm   5.1 km/h 75 % 0 mm
22:41 -9.3 °C -12 °C 34164.7 hPa NNE 3.1 km/h 3.1 km/h 73 % 0 mm
22:46 -9.3 °C -12 °C 34164.7 hPa Calm     73 % 0 mm
22:50 -10.7 °C -13.1 °C 34222.3 hPa WNW 2.6 km/h 2.6 km/h 75 % 0 mm
22:51 -9.4 °C -12.1 °C 34164.7 hPa Calm     73 % 0 mm
22:56 -9.4 °C -12.1 °C 34198.6 hPa ENE 6 km/h 6 km/h 73 % 0 mm
23:00 -10.6 °C -13 °C 34222.3 hPa NNE 2.6 km/h 5.1 km/h 75 % 0 mm
23:01 -9.4 °C -12.2 °C 34198.6 hPa SW 6 km/h 6 km/h 72 % 0 mm
23:06 -9.6 °C -12.3 °C 34198.6 hPa SW 6 km/h 6 km/h 72 % 0 mm
23:10 -10.7 °C -13.2 °C 34222.3 hPa NE 2.6 km/h 5.1 km/h 74 % 0 mm
23:11 -9.6 °C -12.3 °C 34198.6 hPa WSW 3.7 km/h 4.2 km/h 73 % 0 mm
23:16 -9.7 °C -12.3 °C 34198.6 hPa WSW 3.7 km/h 4.2 km/h 73 % 0 mm
23:20 -10.8 °C -13.3 °C 34222.3 hPa NE 2.6 km/h 5.1 km/h 74 % 0 mm
23:21 -9.7 °C -12.2 °C 34198.6 hPa Calm     74 % 0 mm
23:26 -9.7 °C -12.2 °C 34198.6 hPa Calm     74 % 0 mm
23:31 -9.7 °C -12.1 °C 34198.6 hPa Calm     75 % 0 mm
23:36 -9.7 °C -12.1 °C 34198.6 hPa Calm   2.3 km/h 75 % 0 mm
23:40 -10.9 °C -13.4 °C 34222.3 hPa Calm   2.6 km/h 74 % 0 mm
23:41 -9.7 °C -12 °C 34198.6 hPa Calm     76 % 0 mm
23:46 -9.7 °C -12 °C 34198.6 hPa NE 6 km/h 6 km/h 76 % 0 mm
23:50 -11.1 °C -13.6 °C 34222.3 hPa Calm   5.1 km/h 74 % 0 mm
23:51 -9.7 °C -12 °C 34198.6 hPa Calm     76 % 0 mm
23:56 -9.7 °C -12 °C 34198.6 hPa Calm     76 % 0 mm
Meteo Sesrovires
Elogis d' Weather Underground - 2 mb

Guio original per  Jim McMurry - jmcmurry@mwt.net Adaptat per a la plantilla per  Wim van der Kuil - Leuven-Template.eu

Trobareu la nostra informacio del temps tambe a:

Weather Underground

AWEKAS